Boston, Massachusetts
Traffic Map
Current Weather Conditions
Boston, Massachusetts
Broken Clouds
Broken Clouds
21°
Feels Like: 21°
Wind Chill: 21° Ceiling: 16000
Heat Index: 21° Visibility: 10mi
Dew Point: 16° Wind: 10mph
Humidity: 71% Direction: 80° (E)
Pressure: 30.12in Gusts: 0mph
Raw Report DataKBOS 231654Z 08009KT 10SM FEW015 SCT070 BKN160 21/16 A3012 RMK A02 SLP198 T02110156
Traffic Incident Summary
Active as of:
Severity:
Category:
InformationThere was an issue retrieving the traffic information for this location. Please try a different location or try again shortly.
Advertisements
Track Severe Weather on mobile